Time;durP1;ratioP1;P1;durP2;ratioP2;P2;SDS_P1;SDS_P2;PMS_P1;PMS_P2;Temp;Humidity;BMP_temperature;BMP_pressure;BME280_temperature;BME280_humidity;BME280_pressure;Samples;Min_cycle;Max_cycle;Signal;HPM_P1;HPM_P2
2023/03/27 00:00:49;;;;;;;11.68;1.50;;;3.40;99.90;;;;;;5120148;27;20036;-72
2023/03/27 00:03:15;;;;;;;;;;;3.40;99.90;;;;;;5120098;27;20126;-72
2023/03/27 00:05:41;;;;;;;12.65;2.17;;;3.40;99.90;;;;;;5103450;27;20022;-73
2023/03/27 00:08:10;;;;;;;9.32;1.83;;;3.40;99.90;;;;;;5130176;27;20039;-71
2023/03/27 00:10:37;;;;;;;12.07;2.20;;;3.30;99.90;;;;;;5123791;27;20445;-73
2023/03/27 00:13:04;;;;;;;11.57;1.98;;;3.30;99.90;;;;;;5112387;27;20473;-72
2023/03/27 00:15:31;;;;;;;10.10;2.03;;;3.30;99.90;;;;;;5122912;27;20047;-71
2023/03/27 00:17:57;;;;;;;7.88;2.30;;;3.20;99.90;;;;;;5107036;27;20055;-72
2023/03/27 00:20:25;;;;;;;8.65;1.88;;;3.20;99.90;;;;;;5105098;28;20075;-72
2023/03/27 00:22:54;;;;;;;9.90;1.57;;;3.20;99.90;;;;;;5122733;27;20036;-72
2023/03/27 00:25:25;;;;;;;7.97;2.03;;;3.50;99.90;;;;;;5121620;27;20051;-72
2023/03/27 00:27:53;;;;;;;8.32;1.73;;;3.20;99.90;;;;;;5115758;27;20082;-72
2023/03/27 00:30:19;;;;;;;4.70;1.20;;;3.20;99.90;;;;;;5120998;27;20085;-71
2023/03/27 00:32:46;;;;;;;10.65;2.20;;;3.10;99.90;;;;;;5124184;27;20299;-72
2023/03/27 00:35:13;;;;;;;11.20;2.03;;;3.10;99.90;;;;;;5110194;28;20445;-72
2023/03/27 00:37:39;;;;;;;5.22;1.55;;;3.20;99.90;;;;;;5100320;28;20067;-71
2023/03/27 00:40:06;;;;;;;6.50;1.70;;;3.20;99.90;;;;;;5117635;27;20095;-72
2023/03/27 00:42:33;;;;;;;8.25;1.70;;;3.20;99.90;;;;;;5131568;27;20420;-72
2023/03/27 00:45:00;;;;;;;9.98;2.50;;;3.30;99.90;;;;;;5124422;27;20119;-72
2023/03/27 00:47:34;;;;;;;9.75;1.70;;;3.30;99.90;;;;;;5125231;27;20131;-72
2023/03/27 00:50:05;;;;;;;8.02;1.52;;;3.50;99.90;;;;;;5126294;27;20066;-73
2023/03/27 00:52:32;;;;;;;15.35;1.90;;;3.30;99.90;;;;;;5103849;27;20135;-72
2023/03/27 00:55:01;;;;;;;9.48;1.33;;;3.30;99.90;;;;;;5116776;27;20504;-72
2023/03/27 00:57:28;;;;;;;10.77;1.88;;;3.30;99.90;;;;;;5099536;28;20039;-72
2023/03/27 00:59:56;;;;;;;14.13;2.13;;;3.30;99.90;;;;;;5065278;28;20064;-72
2023/03/27 01:02:21;;;;;;;6.43;1.73;;;3.20;99.90;;;;;;5099899;27;20047;-72
2023/03/27 01:04:48;;;;;;;8.65;1.50;;;3.40;99.90;;;;;;5100516;27;20027;-71
2023/03/27 01:07:14;;;;;;;4.45;1.60;;;3.20;99.90;;;;;;5102876;28;20028;-72
2023/03/27 01:09:40;;;;;;;10.02;2.15;;;3.20;99.90;;;;;;5103606;28;20047;-72
2023/03/27 01:12:27;;;;;;;8.43;1.85;;;3.10;99.90;;;;;;5081614;28;20093;-73
2023/03/27 01:15:14;;;;;;;16.70;2.05;;;3.20;99.90;;;;;;5099109;28;20512;-72
2023/03/27 01:17:46;;;;;;;6.88;1.50;;;3.20;99.90;;;;;;5086352;27;20032;-72
2023/03/27 01:20:49;;;;;;;7.65;1.40;;;3.20;99.90;;;;;;5083977;28;20161;-71
2023/03/27 01:23:52;;;;;;;13.85;1.73;;;3.20;99.90;;;;;;5107056;28;20040;-72
2023/03/27 01:26:25;;;;;;;8.13;1.52;;;3.20;99.90;;;;;;5092830;28;20059;-72
2023/03/27 01:29:18;;;;;;;10.35;2.15;;;3.10;99.90;;;;;;5103631;28;20047;-72
2023/03/27 01:32:15;;;;;;;10.43;1.52;;;3.10;99.90;;;;;;5097968;27;20511;-71
2023/03/27 01:35:10;;;;;;;8.45;1.75;;;3.10;99.90;;;;;;5095715;28;20047;-72
2023/03/27 01:38:04;;;;;;;8.98;1.63;;;3.00;99.90;;;;;;5101438;28;20039;-71
2023/03/27 01:40:55;;;;;;;4.03;1.30;;;3.10;99.90;;;;;;5099430;27;20048;-72
2023/03/27 01:43:38;;;;;;;10.68;1.83;;;2.90;99.90;;;;;;5110722;28;20446;-71
2023/03/27 01:46:40;;;;;;;5.25;1.48;;;2.90;99.90;;;;;;5104930;28;20075;-72
2023/03/27 01:49:18;;;;;;;10.10;1.73;;;2.90;99.90;;;;;;5092779;28;20044;-71
2023/03/27 01:51:53;;;;;;;11.15;2.05;;;2.90;99.90;;;;;;5084856;27;20062;-71
2023/03/27 01:54:29;;;;;;;8.43;1.70;;;2.90;99.90;;;;;;5125224;27;20047;-71
2023/03/27 01:57:07;;;;;;;6.82;1.77;;;2.80;99.90;;;;;;5100548;27;20046;-72
2023/03/27 01:59:38;;;;;;;9.45;1.85;;;2.80;99.90;;;;;;5121705;27;20047;-71
2023/03/27 02:02:10;;;;;;;10.70;1.83;;;2.70;99.90;;;;;;5124833;27;20043;-71
2023/03/27 02:04:55;;;;;;;11.80;1.67;;;2.80;99.90;;;;;;5124690;27;20132;-72
2023/03/27 02:07:33;;;;;;;7.60;2.08;;;2.80;99.90;;;;;;5117630;27;20062;-71
2023/03/27 02:10:03;;;;;;;11.63;1.93;;;2.80;99.90;;;;;;5117049;27;20044;-71
2023/03/27 02:12:32;;;;;;;7.30;1.88;;;2.90;99.90;;;;;;5121930;27;20180;-71
2023/03/27 02:15:08;;;;;;;5.50;1.13;;;3.10;99.90;;;;;;5103822;27;20039;-71
2023/03/27 02:17:37;;;;;;;16.10;2.67;;;3.00;99.90;;;;;;5108322;27;20047;-70
2023/03/27 02:20:15;;;;;;;8.25;2.13;;;3.20;99.90;;;;;;5126615;27;20043;-72
2023/03/27 02:22:47;;;;;;;10.20;1.70;;;3.10;99.90;;;;;;5112481;27;20040;-71
2023/03/27 02:25:35;;;;;;;5.18;1.55;;;3.10;99.90;;;;;;5117533;27;20110;-71
2023/03/27 02:28:10;;;;;;;14.85;2.22;;;3.10;99.90;;;;;;5111967;27;20036;-72
2023/03/27 02:30:47;;;;;;;7.22;1.90;;;3.10;99.90;;;;;;5114646;27;20042;-72
2023/03/27 02:33:43;;;;;;;5.68;1.60;;;3.00;99.90;;;;;;5117402;27;20126;-72
2023/03/27 02:36:15;;;;;;;9.50;1.30;;;3.00;99.90;;;;;;5129548;27;20400;-72
2023/03/27 02:38:57;;;;;;;6.35;1.48;;;3.10;99.90;;;;;;5122260;27;20043;-72
2023/03/27 02:41:35;;;;;;;6.47;1.42;;;3.00;99.90;;;;;;5119795;27;20035;-72
2023/03/27 02:44:43;;;;;;;9.70;1.60;;;3.00;99.90;;;;;;5116987;28;20073;-72
2023/03/27 02:47:20;;;;;;;8.95;2.53;;;3.00;99.90;;;;;;5111916;27;20082;-72
2023/03/27 02:49:51;;;;;;;9.30;1.92;;;3.00;99.90;;;;;;5133175;27;20043;-72
2023/03/27 02:52:25;;;;;;;5.93;1.50;;;3.00;99.90;;;;;;5106390;28;20074;-71
2023/03/27 02:55:05;;;;;;;13.27;2.65;;;3.20;99.90;;;;;;5107644;27;20035;-72
2023/03/27 02:57:32;;;;;;;8.07;1.80;;;3.00;99.90;;;;;;5116959;27;20071;-72
2023/03/27 03:00:21;;;;;;;14.27;2.05;;;3.00;99.90;;;;;;5117224;27;20050;-71
2023/03/27 03:02:47;;;;;;;11.93;2.03;;;3.00;99.90;;;;;;5118108;28;20042;-72
2023/03/27 03:05:19;;;;;;;9.48;2.00;;;2.90;99.90;;;;;;5128418;28;20057;-72
2023/03/27 03:07:45;;;;;;;8.18;1.77;;;2.90;99.90;;;;;;5117901;28;20044;-72
2023/03/27 03:10:12;;;;;;;4.95;1.40;;;2.90;99.90;;;;;;5115043;28;20362;-74
2023/03/27 03:12:38;;;;;;;16.73;3.25;;;2.90;99.90;;;;;;5112916;28;20119;-71
2023/03/27 03:15:04;;;;;;;8.88;1.63;;;2.80;99.90;;;;;;5120766;28;20436;-72
2023/03/27 03:17:30;;;;;;;4.72;1.55;;;2.80;99.90;;;;;;5141736;27;20392;-73
2023/03/27 03:19:56;;;;;;;14.30;1.92;;;2.80;99.90;;;;;;5142071;27;20039;-70
2023/03/27 03:22:21;;;;;;;8.15;2.05;;;2.80;99.90;;;;;;5123972;28;20040;-71
2023/03/27 03:24:47;;;;;;;5.35;1.80;;;2.80;99.90;;;;;;5123414;27;20536;-72
2023/03/27 03:27:13;;;;;;;7.15;1.75;;;2.80;99.90;;;;;;5113988;27;20061;-71
2023/03/27 03:29:38;;;;;;;14.38;2.83;;;2.90;99.90;;;;;;5119690;27;20096;-71
2023/03/27 03:32:05;;;;;;;17.85;2.22;;;2.90;99.90;;;;;;5113283;27;20077;-72
2023/03/27 03:34:32;;;;;;;6.63;1.75;;;2.90;99.90;;;;;;5116973;27;20062;-71
2023/03/27 03:36:58;;;;;;;11.85;1.80;;;2.90;99.90;;;;;;5112279;27;20041;-71
2023/03/27 03:39:24;;;;;;;6.85;2.22;;;2.80;99.90;;;;;;5118423;27;20122;-71
2023/03/27 03:41:50;;;;;;;12.95;2.42;;;2.80;99.90;;;;;;5116190;27;20532;-71
2023/03/27 03:44:16;;;;;;;14.93;2.25;;;2.80;99.90;;;;;;5112657;27;20430;-72
2023/03/27 03:46:42;;;;;;;6.28;1.67;;;2.80;99.90;;;;;;5113355;27;20039;-71
2023/03/27 03:49:07;;;;;;;7.47;1.85;;;2.70;99.90;;;;;;5119415;27;20127;-71
2023/03/27 03:51:35;;;;;;;15.98;2.78;;;2.70;99.90;;;;;;5118429;27;20051;-72
2023/03/27 03:54:00;;;;;;;13.50;2.35;;;2.90;99.90;;;;;;5109138;28;20039;-71
2023/03/27 03:56:28;;;;;;;8.48;1.80;;;2.70;99.90;;;;;;5120408;27;20046;-72
2023/03/27 03:58:55;;;;;;;13.70;2.63;;;2.80;99.90;;;;;;5130628;27;20050;-72
2023/03/27 04:01:21;;;;;;;11.82;3.40;;;2.80;99.90;;;;;;5121277;27;20184;-72
2023/03/27 04:03:48;;;;;;;13.27;2.30;;;2.90;99.90;;;;;;5127015;27;20096;-71
2023/03/27 04:06:19;;;;;;;10.55;2.05;;;2.90;99.90;;;;;;5128876;27;20051;-72
2023/03/27 04:08:45;;;;;;;7.65;1.98;;;2.90;99.90;;;;;;5097771;27;20067;-72
2023/03/27 04:11:11;;;;;;;12.15;2.60;;;2.80;99.90;;;;;;5120823;27;20075;-71
2023/03/27 04:13:36;;;;;;;8.63;2.35;;;2.70;99.90;;;;;;5106927;28;20067;-71
2023/03/27 04:16:02;;;;;;;15.63;2.83;;;2.60;99.90;;;;;;5124356;27;20521;-72
2023/03/27 04:18:29;;;;;;;20.58;2.55;;;2.60;99.90;;;;;;5107894;27;20047;-71
2023/03/27 04:20:57;;;;;;;8.70;1.90;;;2.50;99.90;;;;;;5121118;27;20116;-71
2023/03/27 04:23:29;;;;;;;9.60;2.00;;;2.50;99.90;;;;;;5116423;27;20047;-71
2023/03/27 04:25:58;;;;;;;12.38;3.22;;;2.50;99.90;;;;;;5124617;27;20088;-72
2023/03/27 04:28:25;;;;;;;10.82;1.75;;;2.60;99.90;;;;;;5122958;27;20147;-71
2023/03/27 04:30:52;;;;;;;7.65;1.40;;;2.50;99.90;;;;;;5125756;27;20117;-71
2023/03/27 04:33:17;;;;;;;12.70;2.45;;;2.60;99.90;;;;;;5117826;27;20070;-72
2023/03/27 04:35:46;;;;;;;6.10;1.85;;;2.70;99.90;;;;;;5120442;27;20074;-71
2023/03/27 04:38:13;;;;;;;7.60;1.73;;;2.80;99.90;;;;;;5127067;27;20447;-72
2023/03/27 04:40:44;;;;;;;9.48;1.80;;;2.90;99.90;;;;;;5128557;27;20067;-71
2023/03/27 04:43:11;;;;;;;10.35;1.70;;;2.90;99.90;;;;;;5127083;27;20085;-71
2023/03/27 04:45:37;;;;;;;9.70;1.65;;;3.00;99.90;;;;;;5118147;27;20036;-72
2023/03/27 04:48:04;;;;;;;14.10;1.85;;;3.00;99.90;;;;;;5120049;27;20042;-71
2023/03/27 04:50:30;;;;;;;8.05;2.45;;;3.10;99.90;;;;;;5123765;27;20043;-72
2023/03/27 04:52:58;;;;;;;8.88;1.58;;;3.10;99.90;;;;;;5132873;27;20551;-71
2023/03/27 04:55:25;;;;;;;5.80;1.50;;;3.20;99.90;;;;;;5123608;27;20123;-72
2023/03/27 04:57:52;;;;;;;3.65;1.10;;;3.20;99.90;;;;;;5128098;27;20159;-72
2023/03/27 05:00:18;;;;;;;3.70;0.90;;;3.20;99.90;;;;;;5120977;27;20058;-72
2023/03/27 05:02:47;;;;;;;8.90;0.90;;;3.20;99.90;;;;;;5094718;27;20533;-72
2023/03/27 05:05:15;;;;;;;5.75;1.10;;;3.10;99.90;;;;;;5124426;27;20339;-72
2023/03/27 05:07:44;;;;;;;3.72;1.02;;;3.10;99.90;;;;;;5123952;27;20395;-72
2023/03/27 05:10:10;;;;;;;1.52;0.63;;;3.10;99.90;;;;;;5119477;27;20044;-72
2023/03/27 05:12:35;;;;;;;2.78;0.73;;;3.00;99.90;;;;;;5114431;27;20051;-72
2023/03/27 05:15:04;;;;;;;4.15;0.80;;;2.90;99.90;;;;;;5104375;27;20543;-72
2023/03/27 05:17:31;;;;;;;2.45;0.73;;;2.90;99.90;;;;;;5126651;27;20517;-72
2023/03/27 05:19:56;;;;;;;6.30;1.17;;;2.90;99.90;;;;;;5119203;27;20074;-73
2023/03/27 05:22:22;;;;;;;1.27;0.60;;;2.90;99.90;;;;;;5107875;28;20085;-72
2023/03/27 05:24:48;;;;;;;9.80;1.70;;;2.90;99.90;;;;;;5123348;27;20028;-72
2023/03/27 05:27:14;;;;;;;5.13;1.48;;;2.90;99.90;;;;;;5116621;27;20036;-71
2023/03/27 05:29:39;;;;;;;6.88;1.00;;;2.80;99.90;;;;;;5126527;27;20436;-71
2023/03/27 05:32:05;;;;;;;16.52;1.60;;;2.80;99.90;;;;;;5116432;27;20113;-72
2023/03/27 05:34:33;;;;;;;2.25;1.08;;;2.80;99.90;;;;;;5111750;27;20039;-72
2023/03/27 05:37:04;;;;;;;4.00;1.33;;;2.80;99.90;;;;;;5099612;27;20496;-72
2023/03/27 05:39:30;;;;;;;6.50;1.65;;;2.80;99.90;;;;;;5120933;27;20088;-72
2023/03/27 05:41:56;;;;;;;8.13;1.38;;;2.80;99.90;;;;;;5120016;27;20036;-72
2023/03/27 05:44:22;;;;;;;5.53;1.42;;;3.20;99.90;;;;;;5099126;27;20043;-72
2023/03/27 05:46:48;;;;;;;10.10;1.38;;;2.70;99.90;;;;;;5118159;27;20327;-72
2023/03/27 05:49:14;;;;;;;13.30;1.73;;;2.50;99.90;;;;;;5123156;27;20036;-73
2023/03/27 05:51:40;;;;;;;7.18;1.65;;;2.70;99.90;;;;;;5116827;27;20058;-72
2023/03/27 05:54:05;;;;;;;10.30;1.23;;;2.70;99.90;;;;;;5096225;27;20077;-72
2023/03/27 05:56:31;;;;;;;13.43;2.70;;;2.70;99.90;;;;;;5119711;27;20054;-72
2023/03/27 05:58:57;;;;;;;10.70;1.50;;;2.70;99.90;;;;;;5121457;27;20480;-72
2023/03/27 06:01:22;;;;;;;14.38;1.38;;;2.70;99.90;;;;;;5119722;27;20143;-73
2023/03/27 06:03:53;;;;;;;4.55;1.58;;;2.70;99.90;;;;;;5096815;27;20121;-71
2023/03/27 06:06:19;;;;;;;7.93;2.33;;;2.70;99.90;;;;;;5122994;27;20119;-72
2023/03/27 06:08:45;;;;;;;13.45;2.33;;;2.70;99.90;;;;;;5127309;27;20122;-72
2023/03/27 06:11:11;;;;;;;12.43;1.83;;;2.80;99.90;;;;;;5115478;27;20043;-73
2023/03/27 06:13:38;;;;;;;8.00;1.52;;;2.70;99.90;;;;;;5130429;27;20039;-73
2023/03/27 06:16:04;;;;;;;7.05;1.20;;;2.70;99.90;;;;;;5120566;27;20046;-72
2023/03/27 06:18:31;;;;;;;8.57;1.52;;;2.80;99.90;;;;;;5121656;27;20072;-73
2023/03/27 06:20:57;;;;;;;5.63;1.45;;;2.80;99.90;;;;;;5106119;28;20091;-72
2023/03/27 06:23:23;;;;;;;9.57;2.20;;;2.90;99.90;;;;;;5122377;27;20035;-72
2023/03/27 06:25:50;;;;;;;9.07;1.05;;;2.90;99.90;;;;;;5125627;27;20527;-72
2023/03/27 06:28:15;;;;;;;8.82;1.73;;;3.00;99.90;;;;;;5115534;27;20039;-72
2023/03/27 06:30:41;;;;;;;10.30;1.60;;;3.10;99.90;;;;;;5117100;27;20040;-72
2023/03/27 06:33:07;;;;;;;10.75;1.60;;;3.10;99.90;;;;;;5119310;27;20034;-72
2023/03/27 06:35:34;;;;;;;10.10;1.83;;;3.30;99.90;;;;;;5103277;27;20417;-73
2023/03/27 06:38:01;;;;;;;18.58;1.85;;;3.30;99.90;;;;;;5122153;27;20062;-72
2023/03/27 06:40:28;;;;;;;13.02;1.95;;;3.40;99.90;;;;;;5112755;27;20091;-72
2023/03/27 06:42:54;;;;;;;8.80;1.63;;;3.60;99.90;;;;;;5118202;27;20036;-71
2023/03/27 06:45:22;;;;;;;7.97;1.95;;;3.70;99.90;;;;;;5114769;27;20066;-71
2023/03/27 06:47:53;;;;;;;10.32;1.98;;;3.80;99.90;;;;;;5114912;27;20473;-71
2023/03/27 06:50:19;;;;;;;9.93;1.52;;;3.90;99.90;;;;;;5100918;27;20108;-72
2023/03/27 06:52:47;;;;;;;11.85;1.55;;;4.00;99.90;;;;;;5100806;28;20104;-71
2023/03/27 06:55:14;;;;;;;10.27;1.88;;;4.20;99.90;;;;;;5097424;28;20051;-71
2023/03/27 06:57:44;;;;;;;8.02;1.60;;;5.20;99.90;;;;;;5121679;27;20034;-71
2023/03/27 07:00:15;;;;;;;11.65;1.92;;;5.10;99.90;;;;;;5099151;28;20043;-72
2023/03/27 07:02:41;;;;;;;10.15;1.67;;;5.30;99.90;;;;;;5118240;28;20410;-72
2023/03/27 07:05:08;;;;;;;12.23;1.60;;;5.60;99.90;;;;;;5124988;27;20053;-72
2023/03/27 07:07:33;;;;;;;7.07;1.73;;;5.70;99.90;;;;;;5152890;27;20031;-71
2023/03/27 07:09:59;;;;;;;11.80;2.00;;;5.70;99.90;;;;;;5145527;27;20088;-72
2023/03/27 07:12:25;;;;;;;11.52;2.10;;;5.60;99.90;;;;;;5130792;28;20035;-72
2023/03/27 07:14:51;;;;;;;10.95;2.10;;;5.40;99.90;;;;;;5118992;28;20112;-72
2023/03/27 07:17:17;;;;;;;11.38;2.35;;;5.30;99.90;;;;;;5115683;28;20110;-72
2023/03/27 07:19:42;;;;;;;10.02;1.90;;;5.10;99.90;;;;;;5119209;28;20419;-73
2023/03/27 07:22:08;;;;;;;7.25;1.58;;;5.00;99.90;;;;;;5119967;27;20077;-75
2023/03/27 07:24:34;;;;;;;5.25;1.88;;;4.80;99.90;;;;;;5110243;28;20042;-73
2023/03/27 07:27:00;;;;;;;10.52;2.75;;;4.70;99.90;;;;;;5120989;28;20078;-73
2023/03/27 07:29:26;;;;;;;7.40;1.83;;;4.60;99.90;;;;;;5090627;28;20044;-74
2023/03/27 07:31:51;;;;;;;6.68;1.60;;;4.80;99.90;;;;;;5116802;27;20043;-73
2023/03/27 07:34:18;;;;;;;6.07;1.50;;;5.00;99.90;;;;;;5137735;27;20050;-72
2023/03/27 07:36:43;;;;;;;12.73;1.90;;;5.20;99.90;;;;;;5111996;27;20035;-72
2023/03/27 07:39:11;;;;;;;7.78;1.50;;;5.40;99.90;;;;;;5116730;28;20107;-71
2023/03/27 07:41:37;;;;;;;8.95;1.40;;;5.50;99.90;;;;;;5115413;28;20050;-70
2023/03/27 07:44:03;;;;;;;8.73;1.90;;;5.40;99.90;;;;;;5115637;27;20396;-71
2023/03/27 07:46:29;;;;;;;8.18;2.35;;;5.20;99.90;;;;;;5110803;27;20055;-71
2023/03/27 07:48:57;;;;;;;11.55;1.60;;;5.00;99.90;;;;;;5095735;28;20455;-70
2023/03/27 07:51:24;;;;;;;10.48;1.80;;;4.80;99.90;;;;;;5123398;27;20153;-70
2023/03/27 07:53:54;;;;;;;5.93;1.67;;;4.80;99.90;;;;;;5127810;27;20044;-71
2023/03/27 07:56:22;;;;;;;6.90;1.40;;;4.90;99.90;;;;;;5087343;27;20198;-71
2023/03/27 07:58:48;;;;;;;7.22;1.40;;;5.00;99.90;;;;;;5133713;27;20111;-71
2023/03/27 08:01:13;;;;;;;9.60;1.60;;;5.10;99.90;;;;;;5129557;27;20062;-72
2023/03/27 08:03:39;;;;;;;6.88;2.10;;;5.20;99.90;;;;;;5088788;28;20100;-73
2023/03/27 08:06:06;;;;;;;8.85;1.60;;;5.30;99.90;;;;;;5120595;27;20043;-72
2023/03/27 08:08:32;;;;;;;7.20;1.55;;;5.30;99.90;;;;;;5129450;27;20048;-72
2023/03/27 08:11:01;;;;;;;4.75;1.40;;;5.30;99.90;;;;;;5111217;27;20050;-71
2023/03/27 08:13:27;;;;;;;5.03;1.20;;;5.40;99.90;;;;;;5113334;27;20075;-71
2023/03/27 08:16:09;;;;;;;7.85;1.60;;;5.50;99.90;;;;;;5091437;27;20035;-74
2023/03/27 08:18:36;;;;;;;4.13;1.30;;;5.60;99.90;;;;;;5123867;28;20353;-73
2023/03/27 08:21:04;;;;;;;6.50;1.70;;;5.70;99.90;;;;;;5135117;27;20043;-72
2023/03/27 08:23:31;;;;;;;10.15;1.98;;;5.90;99.90;;;;;;5134295;27;20042;-72
2023/03/27 08:25:59;;;;;;;4.85;1.30;;;6.10;99.90;;;;;;5124302;27;20496;-72
2023/03/27 08:28:31;;;;;;;8.48;2.13;;;7.30;99.90;;;;;;5124599;27;20424;-71
2023/03/27 08:30:57;;;;;;;13.80;1.95;;;6.30;99.90;;;;;;5125983;27;20065;-72
2023/03/27 08:33:23;;;;;;;7.50;0.90;;;6.40;99.90;;;;;;5125853;27;20459;-72
2023/03/27 08:35:49;;;;;;;11.30;2.10;;;6.50;99.90;;;;;;5118129;27;20075;-72
2023/03/27 08:38:15;;;;;;;6.30;1.77;;;6.50;99.90;;;;;;5098644;28;20426;-72
2023/03/27 08:40:48;;;;;;;9.85;1.42;;;6.60;99.90;;;;;;5117542;27;20036;-69
2023/03/27 08:43:20;;;;;;;6.18;1.48;;;6.80;99.90;;;;;;5131732;27;20051;-70
2023/03/27 08:45:56;;;;;;;11.75;1.88;;;6.90;99.90;;;;;;5119374;27;20039;-72
2023/03/27 08:48:30;;;;;;;11.27;2.00;;;6.90;99.90;;;;;;5117911;27;20047;-70
2023/03/27 08:51:02;;;;;;;13.50;1.40;;;7.00;99.90;;;;;;5119129;28;20074;-72
2023/03/27 08:53:54;;;;;;;5.03;1.42;;;6.80;99.90;;;;;;5134406;27;20062;-71
2023/03/27 08:56:21;;;;;;;5.32;1.30;;;6.90;99.90;;;;;;5120658;27;20501;-71
2023/03/27 08:58:47;;;;;;;3.53;1.33;;;6.60;99.90;;;;;;5138533;27;20050;-71
2023/03/27 09:01:16;;;;;;;6.85;1.42;;;6.50;99.90;;;;;;5129764;27;20028;-71
2023/03/27 09:03:41;;;;;;;;;;;6.50;99.90;;;;;;5138620;27;20369;-71
2023/03/27 09:06:21;;;;;;;3.90;1.00;;;6.70;99.90;;;;;;5123448;27;19949;-71
2023/03/27 09:09:10;;;;;;;6.10;1.10;;;7.00;99.90;;;;;;5117517;27;20063;-71
2023/03/27 09:11:45;;;;;;;2.95;1.25;;;7.10;99.90;;;;;;5100183;27;20051;-73
2023/03/27 09:14:37;;;;;;;7.35;1.20;;;7.50;99.90;;;;;;5118099;27;20078;-70
2023/03/27 09:17:20;;;;;;;3.97;0.93;;;7.60;99.90;;;;;;5121910;27;20154;-70
2023/03/27 09:19:57;;;;;;;3.88;1.38;;;7.40;99.90;;;;;;5128087;27;20051;-72
2023/03/27 09:22:30;;;;;;;4.82;1.15;;;7.10;99.90;;;;;;5125829;27;20437;-70
2023/03/27 09:24:59;;;;;;;9.00;1.23;;;7.00;99.90;;;;;;5103224;28;20424;-71
2023/03/27 09:27:33;;;;;;;5.63;1.55;;;7.10;99.90;;;;;;5116725;27;20043;-71
2023/03/27 09:30:13;;;;;;;14.15;1.50;;;7.30;99.90;;;;;;5115366;27;20051;-71
2023/03/27 09:32:40;;;;;;;8.75;1.23;;;7.40;99.90;;;;;;5116970;27;20476;-71
2023/03/27 09:35:06;;;;;;;5.13;1.33;;;7.40;99.90;;;;;;5114352;28;20052;-71
2023/03/27 09:37:33;;;;;;;5.03;1.30;;;7.40;99.90;;;;;;5120300;27;20043;-72
2023/03/27 09:40:00;;;;;;;5.10;1.20;;;7.40;99.90;;;;;;5119988;27;20044;-73
2023/03/27 09:42:32;;;;;;;5.38;1.35;;;7.70;99.90;;;;;;5113422;27;20047;-73
2023/03/27 09:45:02;;;;;;;12.55;4.32;;;7.70;99.90;;;;;;5113275;27;20035;-72
2023/03/27 09:47:49;;;;;;;8.88;1.58;;;7.60;99.90;;;;;;5122611;27;20066;-73
2023/03/27 09:50:24;;;;;;;5.32;0.95;;;7.50;99.90;;;;;;5116889;27;20050;-71
2023/03/27 09:52:51;;;;;;;6.53;1.60;;;7.70;99.90;;;;;;5122041;27;20142;-70
2023/03/27 09:55:29;;;;;;;10.88;2.25;;;7.70;99.90;;;;;;5120339;27;20068;-71
2023/03/27 09:58:13;;;;;;;5.70;1.38;;;7.50;99.90;;;;;;5118846;27;20050;-71
2023/03/27 10:00:38;;;;;;;11.63;2.00;;;7.50;99.90;;;;;;5089973;27;20050;-73
2023/03/27 10:03:06;;;;;;;8.70;1.20;;;7.50;99.90;;;;;;5118995;27;20039;-72
2023/03/27 10:05:33;;;;;;;3.85;0.88;;;7.70;99.90;;;;;;5103843;27;20039;-73
2023/03/27 10:08:00;;;;;;;9.20;1.73;;;8.00;99.90;;;;;;5129871;27;20067;-72
2023/03/27 10:10:31;;;;;;;7.78;1.50;;;8.40;99.90;;;;;;5128773;27;20461;-72
2023/03/27 10:12:58;;;;;;;9.82;1.30;;;8.70;99.90;;;;;;5088895;28;20061;-72
2023/03/27 10:15:37;;;;;;;4.53;1.30;;;8.50;99.80;;;;;;5094434;28;20048;-72
2023/03/27 10:18:26;;;;;;;4.70;1.50;;;8.10;99.90;;;;;;5116147;27;20046;-72
2023/03/27 10:20:58;;;;;;;12.57;1.77;;;7.90;99.90;;;;;;5134642;27;20189;-72
2023/03/27 10:23:46;;;;;;;6.70;1.33;;;8.20;99.90;;;;;;5129180;27;20086;-72
2023/03/27 10:26:17;;;;;;;6.70;1.55;;;8.30;99.90;;;;;;5096908;28;20048;-72
2023/03/27 10:28:47;;;;;;;3.50;1.13;;;8.00;99.90;;;;;;5102514;27;20433;-72
2023/03/27 10:31:30;;;;;;;9.93;1.98;;;8.20;99.90;;;;;;5115724;27;20055;-72
2023/03/27 10:33:59;;;;;;;2.38;1.13;;;8.70;99.90;;;;;;5121012;27;20047;-73
2023/03/27 10:36:26;;;;;;;10.02;1.50;;;9.20;98.30;;;;;;5115908;27;20050;-73
2023/03/27 10:39:00;;;;;;;12.70;2.75;;;9.60;98.00;;;;;;5105670;27;20122;-73
2023/03/27 10:41:27;;;;;;;10.80;2.00;;;9.90;98.30;;;;;;5130017;27;20137;-73
2023/03/27 10:43:53;;;;;;;3.88;1.30;;;10.20;97.00;;;;;;5111508;27;20154;-73
2023/03/27 10:46:22;;;;;;;11.88;2.28;;;10.30;96.10;;;;;;5090917;28;20035;-73
2023/03/27 10:48:57;;;;;;;3.88;1.10;;;10.00;94.50;;;;;;5118497;27;20071;-72
2023/03/27 10:51:50;;;;;;;6.55;1.35;;;9.80;94.00;;;;;;5130352;27;20105;-72
2023/03/27 10:54:33;;;;;;;10.57;1.60;;;9.80;94.80;;;;;;5117747;27;20522;-73
2023/03/27 10:57:21;;;;;;;5.95;1.42;;;9.70;95.30;;;;;;5124567;27;20059;-72
2023/03/27 10:59:52;;;;;;;7.43;1.95;;;9.90;95.60;;;;;;5122429;27;20066;-72
2023/03/27 11:02:42;;;;;;;7.63;1.52;;;9.70;95.10;;;;;;5119627;27;20058;-71
2023/03/27 11:05:22;;;;;;;3.90;1.45;;;9.30;95.20;;;;;;5113136;27;20401;-71
2023/03/27 11:07:55;;;;;;;8.20;1.55;;;9.00;95.40;;;;;;5111134;27;20054;-72
2023/03/27 11:10:30;;;;;;;7.10;2.03;;;9.20;95.40;;;;;;5123148;27;20153;-72
2023/03/27 11:13:05;;;;;;;8.38;1.48;;;9.60;95.20;;;;;;5120846;27;20035;-73
2023/03/27 11:16:10;;;;;;;6.28;1.40;;;10.00;94.40;;;;;;5109250;27;20488;-72
2023/03/27 11:18:39;;;;;;;21.20;1.90;;;9.90;94.10;;;;;;5134898;27;20154;-70
2023/03/27 11:21:12;;;;;;;7.22;1.50;;;9.70;95.50;;;;;;5140270;27;20043;-70
2023/03/27 11:23:49;;;;;;;7.85;1.52;;;9.50;97.10;;;;;;5122838;27;20055;-71
2023/03/27 11:26:17;;;;;;;10.50;1.70;;;9.00;99.90;;;;;;5117849;27;20093;-72
2023/03/27 11:28:54;;;;;;;6.43;1.60;;;8.00;99.90;;;;;;5119578;27;20525;-72
2023/03/27 11:31:39;;;;;;;10.43;2.22;;;6.90;99.90;;;;;;5135837;27;20040;-71
2023/03/27 11:34:20;;;;;;;8.10;1.60;;;6.40;99.90;;;;;;5138042;27;20051;-75
2023/03/27 11:36:58;;;;;;;11.18;2.50;;;6.00;99.90;;;;;;5124949;27;20099;-71
2023/03/27 11:39:58;;;;;;;10.77;2.40;;;5.90;99.90;;;;;;5113375;28;20118;-72
2023/03/27 11:42:31;;;;;;;10.35;3.30;;;6.40;99.90;;;;;;5120329;27;20043;-72
2023/03/27 11:44:57;;;;;;;13.50;2.17;;;7.30;99.90;;;;;;5123373;27;20122;-70
2023/03/27 11:48:14;;;;;;;16.23;3.05;;;8.00;99.90;;;;;;5129854;27;20043;-70
2023/03/27 11:50:51;;;;;;;11.93;3.53;;;9.10;99.90;;;;;;5089203;28;20049;-72
2023/03/27 11:53:52;;;;;;;10.77;2.65;;;9.60;99.90;;;;;;5128160;27;20039;-72
2023/03/27 11:56:42;;;;;;;7.28;1.52;;;9.80;99.90;;;;;;5136664;27;20054;-72
2023/03/27 11:59:34;;;;;;;6.78;1.70;;;9.70;99.90;;;;;;5137249;27;20063;-71
2023/03/27 12:02:20;;;;;;;6.28;2.05;;;9.20;99.30;;;;;;5134072;27;20039;-71
2023/03/27 12:05:00;;;;;;;9.98;2.50;;;8.80;99.10;;;;;;5135845;27;20126;-72
2023/03/27 12:07:56;;;;;;;15.20;4.72;;;9.10;99.90;;;;;;5135365;27;20500;-71
2023/03/27 12:10:27;;;;;;;15.82;3.92;;;9.40;98.60;;;;;;5132845;27;20412;-72
2023/03/27 12:13:15;;;;;;;6.40;1.80;;;9.40;99.00;;;;;;5135192;27;20028;-71
2023/03/27 12:15:53;;;;;;;7.40;1.70;;;9.50;97.10;;;;;;5133148;27;20053;-72
2023/03/27 12:18:31;;;;;;;12.48;2.72;;;9.40;96.70;;;;;;5133876;27;20039;-72
2023/03/27 12:21:09;;;;;;;10.23;2.38;;;9.80;97.50;;;;;;5130712;27;20050;-72
2023/03/27 12:24:14;;;;;;;5.65;2.22;;;9.90;98.20;;;;;;5132169;27;20039;-72
2023/03/27 12:27:04;;;;;;;9.40;2.60;;;9.50;97.00;;;;;;5122617;27;20153;-72
2023/03/27 12:30:07;;;;;;;10.48;2.03;;;9.20;96.90;;;;;;5120092;27;20047;-72
2023/03/27 12:33:05;;;;;;;5.57;1.48;;;9.30;96.10;;;;;;5118483;27;20468;-72
2023/03/27 12:35:38;;;;;;;7.35;2.33;;;9.70;96.30;;;;;;5136073;27;20050;-72
2023/03/27 12:38:09;;;;;;;5.18;1.55;;;9.70;96.50;;;;;;5112815;27;20043;-73
2023/03/27 12:41:00;;;;;;;10.98;2.60;;;10.00;95.80;;;;;;5135489;27;20043;-73
2023/03/27 12:43:30;;;;;;;18.00;3.42;;;10.20;96.10;;;;;;5134095;27;20035;-73
2023/03/27 12:46:23;;;;;;;13.73;2.78;;;9.70;96.40;;;;;;5138397;27;20043;-72
2023/03/27 12:49:09;;;;;;;4.80;1.33;;;9.20;97.60;;;;;;5123974;27;20043;-72
2023/03/27 12:51:42;;;;;;;10.27;1.92;;;9.50;97.80;;;;;;5126648;27;20059;-70
2023/03/27 12:54:27;;;;;;;6.88;1.70;;;10.10;96.20;;;;;;5131470;27;20092;-71
2023/03/27 12:57:06;;;;;;;8.88;1.55;;;10.50;95.10;;;;;;5119311;27;20047;-72
2023/03/27 12:59:37;;;;;;;;;;;10.90;93.70;;;;;;5144406;27;20091;-72
2023/03/27 13:02:15;;;;;;;4.15;1.42;;;11.00;93.30;;;;;;5135761;27;19919;-72
2023/03/27 13:05:02;;;;;;;5.65;1.70;;;11.00;93.70;;;;;;5115473;27;20041;-72
2023/03/27 13:07:34;;;;;;;9.60;1.80;;;10.70;94.20;;;;;;5125691;27;20043;-73
2023/03/27 13:10:20;;;;;;;20.10;2.05;;;10.20;94.60;;;;;;5142070;27;20434;-73
2023/03/27 13:13:01;;;;;;;5.50;1.30;;;9.70;96.60;;;;;;5128867;27;20082;-72
2023/03/27 13:16:04;;;;;;;8.68;2.00;;;9.20;97.80;;;;;;5131441;27;20049;-73
2023/03/27 13:18:36;;;;;;;7.82;1.88;;;8.70;98.40;;;;;;5121768;28;20032;-71
2023/03/27 13:21:31;;;;;;;11.13;1.83;;;8.30;99.80;;;;;;5121640;28;20046;-71